sensor_id;sensor_type;location;lat;lon;timestamp;pressure;altitude;pressure_sealevel;temperature;humidity
10510;BME280;5303;53.266;10.410;2022-12-18T00:00:42;102773.09;;;-4.28;100.00
10510;BME280;5303;53.266;10.410;2022-12-18T00:03:08;102764.25;;;-4.30;100.00
10510;BME280;5303;53.266;10.410;2022-12-18T00:05:33;102771.38;;;-4.31;100.00
10510;BME280;5303;53.266;10.410;2022-12-18T00:07:58;102777.53;;;-4.29;100.00
10510;BME280;5303;53.266;10.410;2022-12-18T00:10:24;102783.72;;;-4.28;100.00
10510;BME280;5303;53.266;10.410;2022-12-18T00:12:49;102785.47;;;-4.27;100.00
10510;BME280;5303;53.266;10.410;2022-12-18T00:15:15;102791.84;;;-4.34;100.00
10510;BME280;5303;53.266;10.410;2022-12-18T00:17:40;102791.06;;;-4.41;100.00
10510;BME280;5303;53.266;10.410;2022-12-18T00:20:06;102784.94;;;-4.45;100.00
10510;BME280;5303;53.266;10.410;2022-12-18T00:22:31;102777.94;;;-4.49;100.00
10510;BME280;5303;53.266;10.410;2022-12-18T00:24:56;102788.41;;;-4.39;100.00
10510;BME280;5303;53.266;10.410;2022-12-18T00:27:22;102783.97;;;-4.40;100.00
10510;BME280;5303;53.266;10.410;2022-12-18T00:29:48;102782.13;;;-4.37;100.00
10510;BME280;5303;53.266;10.410;2022-12-18T00:32:13;102780.38;;;-4.36;100.00
10510;BME280;5303;53.266;10.410;2022-12-18T00:34:38;102783.97;;;-4.40;100.00
10510;BME280;5303;53.266;10.410;2022-12-18T00:37:03;102783.25;;;-4.50;100.00
10510;BME280;5303;53.266;10.410;2022-12-18T00:39:29;102787.75;;;-4.54;100.00
10510;BME280;5303;53.266;10.410;2022-12-18T00:41:54;102793.13;;;-4.55;100.00
10510;BME280;5303;53.266;10.410;2022-12-18T00:44:38;102798.28;;;-4.46;100.00
10510;BME280;5303;53.266;10.410;2022-12-18T00:47:03;102804.47;;;-4.46;100.00
10510;BME280;5303;53.266;10.410;2022-12-18T00:49:28;102810.59;;;-4.42;100.00
10510;BME280;5303;53.266;10.410;2022-12-18T00:51:53;102807.06;;;-4.42;100.00
10510;BME280;5303;53.266;10.410;2022-12-18T00:54:19;102799.09;;;-4.44;100.00
10510;BME280;5303;53.266;10.410;2022-12-18T00:56:44;102805.41;;;-4.50;100.00
10510;BME280;5303;53.266;10.410;2022-12-18T00:59:09;102804.53;;;-4.50;100.00
10510;BME280;5303;53.266;10.410;2022-12-18T01:01:35;102802.75;;;-4.48;100.00
10510;BME280;5303;53.266;10.410;2022-12-18T01:04:02;102816.03;;;-4.48;100.00
10510;BME280;5303;53.266;10.410;2022-12-18T01:06:27;102817.97;;;-4.58;100.00
10510;BME280;5303;53.266;10.410;2022-12-18T01:08:53;102820.63;;;-4.58;100.00
10510;BME280;5303;53.266;10.410;2022-12-18T01:11:19;102817.06;;;-4.55;100.00
10510;BME280;5303;53.266;10.410;2022-12-18T01:13:45;102817.06;;;-4.55;100.00
10510;BME280;5303;53.266;10.410;2022-12-18T01:16:12;102816.28;;;-4.62;100.00
10510;BME280;5303;53.266;10.410;2022-12-18T01:18:38;102815.47;;;-4.67;100.00
10510;BME280;5303;53.266;10.410;2022-12-18T01:21:12;102823.50;;;-4.69;100.00
10510;BME280;5303;53.266;10.410;2022-12-18T01:23:37;102825.25;;;-4.68;100.00
10510;BME280;5303;53.266;10.410;2022-12-18T01:26:07;102815.56;;;-4.72;100.00
10510;BME280;5303;53.266;10.410;2022-12-18T01:28:33;102816.50;;;-4.74;100.00
10510;BME280;5303;53.266;10.410;2022-12-18T01:31:12;102819.22;;;-4.79;100.00
10510;BME280;5303;53.266;10.410;2022-12-18T01:33:37;102819.09;;;-4.71;100.00
10510;BME280;5303;53.266;10.410;2022-12-18T01:36:03;102820.03;;;-4.75;100.00
10510;BME280;5303;53.266;10.410;2022-12-18T01:38:28;102823.53;;;-4.72;100.00
10510;BME280;5303;53.266;10.410;2022-12-18T01:40:58;102827.19;;;-4.79;100.00
10510;BME280;5303;53.266;10.410;2022-12-18T01:43:44;102810.38;;;-4.79;100.00
10510;BME280;5303;53.266;10.410;2022-12-18T01:46:09;102806.97;;;-4.87;100.00
10510;BME280;5303;53.266;10.410;2022-12-18T01:48:35;102798.19;;;-4.91;100.00
10510;BME280;5303;53.266;10.410;2022-12-18T01:51:01;102804.31;;;-4.89;100.00
10510;BME280;5303;53.266;10.410;2022-12-18T01:53:26;102801.72;;;-4.92;100.00
10510;BME280;5303;53.266;10.410;2022-12-18T01:55:54;102793.66;;;-4.86;100.00
10510;BME280;5303;53.266;10.410;2022-12-18T01:58:30;102798.81;;;-4.77;100.00
10510;BME280;5303;53.266;10.410;2022-12-18T02:00:58;102812.13;;;-4.78;100.00
10510;BME280;5303;53.266;10.410;2022-12-18T02:03:23;102808.72;;;-4.86;100.00
10510;BME280;5303;53.266;10.410;2022-12-18T02:06:08;102807.75;;;-4.82;100.00
10510;BME280;5303;53.266;10.410;2022-12-18T02:08:46;102812.16;;;-4.80;100.00
10510;BME280;5303;53.266;10.410;2022-12-18T02:11:34;102820.22;;;-4.86;100.00
10510;BME280;5303;53.266;10.410;2022-12-18T02:14:21;102812.34;;;-4.90;100.00
10510;BME280;5303;53.266;10.410;2022-12-18T02:16:58;102820.47;;;-5.00;100.00
10510;BME280;5303;53.266;10.410;2022-12-18T02:19:44;102821.41;;;-5.05;100.00
10510;BME280;5303;53.266;10.410;2022-12-18T02:22:29;102813.44;;;-5.05;100.00
10510;BME280;5303;53.266;10.410;2022-12-18T02:27:46;102816.28;;;-5.16;100.00
10510;BME280;5303;53.266;10.410;2022-12-18T02:30:14;102830.34;;;-5.09;100.00
10510;BME280;5303;53.266;10.410;2022-12-18T02:32:43;102822.38;;;-5.09;100.00
10510;BME280;5303;53.266;10.410;2022-12-18T02:35:14;102816.19;;;-5.10;100.00
10510;BME280;5303;53.266;10.410;2022-12-18T02:37:43;102821.56;;;-5.13;100.00
10510;BME280;5303;53.266;10.410;2022-12-18T02:40:12;102818.84;;;-5.11;100.00
10510;BME280;5303;53.266;10.410;2022-12-18T02:42:38;102824.22;;;-5.15;100.00
10510;BME280;5303;53.266;10.410;2022-12-18T02:45:04;102827.78;;;-5.16;100.00
10510;BME280;5303;53.266;10.410;2022-12-18T02:47:32;102833.13;;;-5.19;100.00
10510;BME280;5303;53.266;10.410;2022-12-18T02:50:16;102846.38;;;-5.16;100.00
10510;BME280;5303;53.266;10.410;2022-12-18T02:55:28;102848.94;;;-5.09;100.00
10510;BME280;5303;53.266;10.410;2022-12-18T02:58:04;102850.78;;;-5.15;100.00
10510;BME280;5303;53.266;10.410;2022-12-18T03:00:37;102850.81;;;-5.16;100.00
10510;BME280;5303;53.266;10.410;2022-12-18T03:03:14;102841.97;;;-5.17;100.00
10510;BME280;5303;53.266;10.410;2022-12-18T03:05:51;102838.72;;;-5.37;100.00
10510;BME280;5303;53.266;10.410;2022-12-18T03:08:22;102854.56;;;-5.29;100.00
10510;BME280;5303;53.266;10.410;2022-12-18T03:10:54;102854.69;;;-5.39;100.00
10510;BME280;5303;53.266;10.410;2022-12-18T03:13:32;102854.59;;;-5.34;100.00
10510;BME280;5303;53.266;10.410;2022-12-18T03:15:59;102849.25;;;-5.31;100.00
10510;BME280;5303;53.266;10.410;2022-12-18T03:18:37;102844.88;;;-5.35;100.00
10510;BME280;5303;53.266;10.410;2022-12-18T03:21:05;102845.75;;;-5.34;100.00
10510;BME280;5303;53.266;10.410;2022-12-18T03:23:36;102848.31;;;-5.27;100.00
10510;BME280;5303;53.266;10.410;2022-12-18T03:26:07;102842.19;;;-5.32;100.00
10510;BME280;5303;53.266;10.410;2022-12-18T03:28:38;102839.41;;;-5.23;100.00
10510;BME280;5303;53.266;10.410;2022-12-18T03:31:05;102853.69;;;-5.31;100.00
10510;BME280;5303;53.266;10.410;2022-12-18T03:36:10;102842.19;;;-5.32;100.00
10510;BME280;5303;53.266;10.410;2022-12-18T03:38:36;102854.59;;;-5.34;100.00
10510;BME280;5303;53.266;10.410;2022-12-18T03:44:07;102855.44;;;-5.30;100.00
10510;BME280;5303;53.266;10.410;2022-12-18T03:49:59;102850.22;;;-5.36;100.00
10510;BME280;5303;53.266;10.410;2022-12-18T03:52:38;102849.34;;;-5.37;100.00
10510;BME280;5303;53.266;10.410;2022-12-18T03:55:09;102855.56;;;-5.40;100.00
10510;BME280;5303;53.266;10.410;2022-12-18T03:57:35;102855.47;;;-5.33;100.00
10510;BME280;5303;53.266;10.410;2022-12-18T04:00:13;102868.72;;;-5.30;100.00
10510;BME280;5303;53.266;10.410;2022-12-18T04:02:45;102864.47;;;-5.44;100.00
10510;BME280;5303;53.266;10.410;2022-12-18T04:05:14;102869.69;;;-5.36;100.00
10510;BME280;5303;53.266;10.410;2022-12-18T04:07:42;102866.25;;;-5.44;100.00
10510;BME280;5303;53.266;10.410;2022-12-18T04:10:11;102863.69;;;-5.50;100.00
10510;BME280;5303;53.266;10.410;2022-12-18T04:12:37;102862.84;;;-5.55;100.00
10510;BME280;5303;53.266;10.410;2022-12-18T04:15:03;102867.41;;;-5.64;100.00
10510;BME280;5303;53.266;10.410;2022-12-18T04:17:28;102864.81;;;-5.70;100.00
10510;BME280;5303;53.266;10.410;2022-12-18T04:19:53;102863.91;;;-5.69;100.00
10510;BME280;5303;53.266;10.410;2022-12-18T04:22:18;102866.63;;;-5.75;100.00
10510;BME280;5303;53.266;10.410;2022-12-18T04:24:44;102869.22;;;-5.69;100.00
10510;BME280;5303;53.266;10.410;2022-12-18T04:27:09;102865.72;;;-5.71;100.00
10510;BME280;5303;53.266;10.410;2022-12-18T04:29:34;102862.25;;;-5.79;100.00
10510;BME280;5303;53.266;10.410;2022-12-18T04:32:00;102862.13;;;-5.68;100.00
10510;BME280;5303;53.266;10.410;2022-12-18T04:34:25;102855.09;;;-5.71;100.00
10510;BME280;5303;53.266;10.410;2022-12-18T04:36:50;102865.75;;;-5.74;100.00
10510;BME280;5303;53.266;10.410;2022-12-18T04:39:16;102853.34;;;-5.73;100.00
10510;BME280;5303;53.266;10.410;2022-12-18T04:41:41;102856.00;;;-5.75;100.00
10510;BME280;5303;53.266;10.410;2022-12-18T04:44:06;102855.13;;;-5.75;100.00
10510;BME280;5303;53.266;10.410;2022-12-18T04:46:32;102860.44;;;-5.74;100.00
10510;BME280;5303;53.266;10.410;2022-12-18T04:48:57;102859.56;;;-5.76;100.00
10510;BME280;5303;53.266;10.410;2022-12-18T04:51:22;102859.63;;;-5.79;100.00
10510;BME280;5303;53.266;10.410;2022-12-18T04:53:48;102842.72;;;-5.72;100.00
10510;BME280;5303;53.266;10.410;2022-12-18T04:56:14;102849.78;;;-5.71;100.00
10510;BME280;5303;53.266;10.410;2022-12-18T04:58:41;102848.16;;;-5.81;100.00
10510;BME280;5303;53.266;10.410;2022-12-18T05:01:08;102842.88;;;-5.86;100.00
10510;BME280;5303;53.266;10.410;2022-12-18T05:03:34;102838.41;;;-5.82;100.00
10510;BME280;5303;53.266;10.410;2022-12-18T05:06:00;102846.28;;;-5.73;100.00
10510;BME280;5303;53.266;10.410;2022-12-18T05:08:25;102848.19;;;-5.84;100.00
10510;BME280;5303;53.266;10.410;2022-12-18T05:11:23;102857.94;;;-5.88;100.00
10510;BME280;5303;53.266;10.410;2022-12-18T05:13:49;102853.53;;;-5.87;100.00
10510;BME280;5303;53.266;10.410;2022-12-18T05:16:14;102865.03;;;-5.87;100.00
10510;BME280;5303;53.266;10.410;2022-12-18T05:18:40;102866.72;;;-5.81;100.00
10510;BME280;5303;53.266;10.410;2022-12-18T05:21:05;102862.25;;;-5.79;100.00
10510;BME280;5303;53.266;10.410;2022-12-18T05:23:31;102864.06;;;-5.81;100.00
10510;BME280;5303;53.266;10.410;2022-12-18T05:25:59;102872.94;;;-5.85;100.00
10510;BME280;5303;53.266;10.410;2022-12-18T05:28:26;102873.84;;;-5.86;100.00
10510;BME280;5303;53.266;10.410;2022-12-18T05:30:55;102887.06;;;-5.81;100.00
10510;BME280;5303;53.266;10.410;2022-12-18T05:33:21;102883.69;;;-5.94;100.00
10510;BME280;5303;53.266;10.410;2022-12-18T05:35:51;102893.47;;;-5.96;100.00
10510;BME280;5303;53.266;10.410;2022-12-18T05:38:18;102892.47;;;-5.91;100.00
10510;BME280;5303;53.266;10.410;2022-12-18T05:40:44;102892.59;;;-5.98;100.00
10510;BME280;5303;53.266;10.410;2022-12-18T05:43:10;102898.91;;;-6.08;100.00
10510;BME280;5303;53.266;10.410;2022-12-18T05:45:38;102906.88;;;-6.13;100.00
10510;BME280;5303;53.266;10.410;2022-12-18T05:48:04;102901.53;;;-6.05;100.00
10510;BME280;5303;53.266;10.410;2022-12-18T05:50:30;102904.22;;;-6.13;100.00
10510;BME280;5303;53.266;10.410;2022-12-18T05:52:55;102914.78;;;-6.07;100.00
10510;BME280;5303;53.266;10.410;2022-12-18T05:55:20;102915.75;;;-6.14;100.00
10510;BME280;5303;53.266;10.410;2022-12-18T05:57:46;102925.47;;;-6.15;100.00
10510;BME280;5303;53.266;10.410;2022-12-18T06:00:12;102915.69;;;-6.08;100.00
10510;BME280;5303;53.266;10.410;2022-12-18T06:02:37;102909.59;;;-6.18;100.00
10510;BME280;5303;53.266;10.410;2022-12-18T06:05:03;102906.97;;;-6.21;100.00
10510;BME280;5303;53.266;10.410;2022-12-18T06:07:28;102912.25;;;-6.16;100.00
10510;BME280;5303;53.266;10.410;2022-12-18T06:09:54;102900.78;;;-6.23;100.00
10510;BME280;5303;53.266;10.410;2022-12-18T06:12:19;102900.78;;;-6.21;100.00
10510;BME280;5303;53.266;10.410;2022-12-18T06:14:44;102905.13;;;-6.14;100.00
10510;BME280;5303;53.266;10.410;2022-12-18T06:17:10;102901.66;;;-6.21;100.00
10510;BME280;5303;53.266;10.410;2022-12-18T06:19:35;102903.44;;;-6.23;100.00
10510;BME280;5303;53.266;10.410;2022-12-18T06:22:00;102906.94;;;-6.18;100.00
10510;BME280;5303;53.266;10.410;2022-12-18T06:24:25;102907.06;;;-6.31;100.00
10510;BME280;5303;53.266;10.410;2022-12-18T06:26:51;102914.97;;;-6.25;100.00
10510;BME280;5303;53.266;10.410;2022-12-18T06:29:19;102913.97;;;-6.14;100.00
10510;BME280;5303;53.266;10.410;2022-12-18T06:31:44;102917.56;;;-6.16;100.00
10510;BME280;5303;53.266;10.410;2022-12-18T06:34:09;102923.75;;;-6.19;100.00
10510;BME280;5303;53.266;10.410;2022-12-18T06:36:35;102930.75;;;-6.13;100.00
10510;BME280;5303;53.266;10.410;2022-12-18T06:39:00;102925.56;;;-6.22;100.00
10510;BME280;5303;53.266;10.410;2022-12-18T06:41:26;102934.38;;;-6.23;100.00
10510;BME280;5303;53.266;10.410;2022-12-18T06:43:51;102925.72;;;-6.42;100.00
10510;BME280;5303;53.266;10.410;2022-12-18T06:46:17;102931.88;;;-6.40;100.00
10510;BME280;5303;53.266;10.410;2022-12-18T06:48:42;102934.59;;;-6.45;100.00
10510;BME280;5303;53.266;10.410;2022-12-18T06:51:07;102938.91;;;-6.36;100.00
10510;BME280;5303;53.266;10.410;2022-12-18T06:53:33;102940.72;;;-6.38;100.00
10510;BME280;5303;53.266;10.410;2022-12-18T06:56:03;102951.31;;;-6.37;100.00
10510;BME280;5303;53.266;10.410;2022-12-18T06:58:29;102949.59;;;-6.45;100.00
10510;BME280;5303;53.266;10.410;2022-12-18T07:00:59;102951.41;;;-6.47;100.00
10510;BME280;5303;53.266;10.410;2022-12-18T07:03:25;102958.47;;;-6.49;100.00
10510;BME280;5303;53.266;10.410;2022-12-18T07:05:50;102965.50;;;-6.44;100.00
10510;BME280;5303;53.266;10.410;2022-12-18T07:08:15;102963.75;;;-6.46;100.00
10510;BME280;5303;53.266;10.410;2022-12-18T07:10:42;102961.97;;;-6.46;100.00
10510;BME280;5303;53.266;10.410;2022-12-18T07:13:07;102954.88;;;-6.42;100.00
10510;BME280;5303;53.266;10.410;2022-12-18T07:15:32;102952.19;;;-6.39;100.00
10510;BME280;5303;53.266;10.410;2022-12-18T07:17:58;102952.31;;;-6.53;100.00
10510;BME280;5303;53.266;10.410;2022-12-18T07:20:23;102952.28;;;-6.50;100.00
10510;BME280;5303;53.266;10.410;2022-12-18T07:22:48;102947.78;;;-6.37;100.00
10510;BME280;5303;53.266;10.410;2022-12-18T07:25:14;102955.78;;;-6.43;100.00
10510;BME280;5303;53.266;10.410;2022-12-18T07:27:39;102961.06;;;-6.40;100.00
10510;BME280;5303;53.266;10.410;2022-12-18T07:30:05;102958.41;;;-6.40;100.00
10510;BME280;5303;53.266;10.410;2022-12-18T07:32:30;102971.63;;;-6.34;100.00
10510;BME280;5303;53.266;10.410;2022-12-18T07:34:56;102980.53;;;-6.44;100.00
10510;BME280;5303;53.266;10.410;2022-12-18T07:37:21;102981.47;;;-6.48;100.00
10510;BME280;5303;53.266;10.410;2022-12-18T07:39:48;102983.19;;;-6.44;100.00
10510;BME280;5303;53.266;10.410;2022-12-18T07:42:13;102989.38;;;-6.47;100.00
10510;BME280;5303;53.266;10.410;2022-12-18T07:44:57;102986.75;;;-6.48;100.00
10510;BME280;5303;53.266;10.410;2022-12-18T07:47:23;102977.84;;;-6.38;100.00
10510;BME280;5303;53.266;10.410;2022-12-18T07:49:48;102984.94;;;-6.39;100.00
10510;BME280;5303;53.266;10.410;2022-12-18T07:52:14;102984.88;;;-6.36;100.00
10510;BME280;5303;53.266;10.410;2022-12-18T07:54:39;102976.03;;;-6.36;100.00
10510;BME280;5303;53.266;10.410;2022-12-18T07:57:05;102980.47;;;-6.37;100.00
10510;BME280;5303;53.266;10.410;2022-12-18T07:59:31;102979.66;;;-6.45;100.00
10510;BME280;5303;53.266;10.410;2022-12-18T08:01:56;102976.09;;;-6.42;100.00
10510;BME280;5303;53.266;10.410;2022-12-18T08:04:21;102982.31;;;-6.46;100.00
10510;BME280;5303;53.266;10.410;2022-12-18T08:06:47;102984.09;;;-6.47;100.00
10510;BME280;5303;53.266;10.410;2022-12-18T08:09:12;102991.09;;;-6.38;100.00
10510;BME280;5303;53.266;10.410;2022-12-18T08:11:37;102979.53;;;-6.33;100.00
10510;BME280;5303;53.266;10.410;2022-12-18T08:14:03;102987.44;;;-6.26;100.00
10510;BME280;5303;53.266;10.410;2022-12-18T08:16:28;102985.72;;;-6.26;100.00
10510;BME280;5303;53.266;10.410;2022-12-18T08:18:54;102985.69;;;-6.27;100.00
10510;BME280;5303;53.266;10.410;2022-12-18T08:21:25;102975.97;;;-6.27;100.00
10510;BME280;5303;53.266;10.410;2022-12-18T08:23:53;102969.69;;;-6.17;100.00
10510;BME280;5303;53.266;10.410;2022-12-18T08:26:19;102959.13;;;-6.18;100.00
10510;BME280;5303;53.266;10.410;2022-12-18T08:28:45;102952.94;;;-6.19;100.00
10510;BME280;5303;53.266;10.410;2022-12-18T08:31:10;102952.03;;;-6.16;100.00
10510;BME280;5303;53.266;10.410;2022-12-18T08:33:37;102950.19;;;-6.11;100.00
10510;BME280;5303;53.266;10.410;2022-12-18T08:36:04;102945.81;;;-6.15;100.00
10510;BME280;5303;53.266;10.410;2022-12-18T08:38:29;102949.28;;;-6.08;100.00
10510;BME280;5303;53.266;10.410;2022-12-18T08:41:11;102945.72;;;-6.03;100.00
10510;BME280;5303;53.266;10.410;2022-12-18T08:43:37;102942.97;;;-5.95;100.00
10510;BME280;5303;53.266;10.410;2022-12-18T08:46:22;102943.06;;;-6.04;100.00
10510;BME280;5303;53.266;10.410;2022-12-18T08:48:50;102933.25;;;-5.93;100.00
10510;BME280;5303;53.266;10.410;2022-12-18T08:51:16;102937.53;;;-5.88;100.00
10510;BME280;5303;53.266;10.410;2022-12-18T08:53:42;102941.88;;;-5.77;100.00
10510;BME280;5303;53.266;10.410;2022-12-18T08:56:08;102943.69;;;-5.81;100.00
10510;BME280;5303;53.266;10.410;2022-12-18T08:58:33;102942.66;;;-5.68;100.00
10510;BME280;5303;53.266;10.410;2022-12-18T09:01:06;102947.06;;;-5.68;100.00
10510;BME280;5303;53.266;10.410;2022-12-18T09:03:32;102951.44;;;-5.63;100.00
10510;BME280;5303;53.266;10.410;2022-12-18T09:05:58;102954.03;;;-5.56;100.00
10510;BME280;5303;53.266;10.410;2022-12-18T09:08:24;102961.16;;;-5.58;100.00
10510;BME280;5303;53.266;10.410;2022-12-18T09:10:50;102957.50;;;-5.48;100.00
10510;BME280;5303;53.266;10.410;2022-12-18T09:13:17;102962.69;;;-5.41;100.00
10510;BME280;5303;53.266;10.410;2022-12-18T09:15:45;102955.59;;;-5.40;100.00
10510;BME280;5303;53.266;10.410;2022-12-18T09:18:11;102952.75;;;-5.23;100.00
10510;BME280;5303;53.266;10.410;2022-12-18T09:20:37;102959.81;;;-5.24;100.00
10510;BME280;5303;53.266;10.410;2022-12-18T09:23:03;102956.41;;;-5.33;100.00
10510;BME280;5303;53.266;10.410;2022-12-18T09:25:29;102959.91;;;-5.28;100.00
10510;BME280;5303;53.266;10.410;2022-12-18T09:28:00;102951.94;;;-5.28;100.00
10510;BME280;5303;53.266;10.410;2022-12-18T09:30:27;102952.69;;;-5.19;100.00
10510;BME280;5303;53.266;10.410;2022-12-18T09:32:52;102953.53;;;-5.15;100.00
10510;BME280;5303;53.266;10.410;2022-12-18T09:35:17;102950.78;;;-5.10;100.00
10510;BME280;5303;53.266;10.410;2022-12-18T09:37:42;102959.59;;;-5.05;100.00
10510;BME280;5303;53.266;10.410;2022-12-18T09:40:14;102955.09;;;-5.00;100.00
10510;BME280;5303;53.266;10.410;2022-12-18T09:42:40;102949.75;;;-4.97;100.00
10510;BME280;5303;53.266;10.410;2022-12-18T09:45:12;102955.91;;;-4.94;100.00
10510;BME280;5303;53.266;10.410;2022-12-18T09:47:40;102947.81;;;-4.86;100.00
10510;BME280;5303;53.266;10.410;2022-12-18T09:50:33;102954.81;;;-4.80;100.00
10510;BME280;5303;53.266;10.410;2022-12-18T09:53:06;102957.44;;;-4.77;100.00
10510;BME280;5303;53.266;10.410;2022-12-18T09:55:43;102958.19;;;-4.68;100.00
10510;BME280;5303;53.266;10.410;2022-12-18T10:00:35;102968.56;;;-4.49;100.00
10510;BME280;5303;53.266;10.410;2022-12-18T10:03:03;102958.78;;;-4.49;100.00
10510;BME280;5303;53.266;10.410;2022-12-18T10:08:13;102955.88;;;-4.33;100.00
10510;BME280;5303;53.266;10.410;2022-12-18T10:16:33;102956.28;;;-4.05;100.00
10510;BME280;5303;53.266;10.410;2022-12-18T10:19:11;102960.72;;;-4.04;100.00
10510;BME280;5303;53.266;10.410;2022-12-18T10:21:57;102955.34;;;-4.01;100.00
10510;BME280;5303;53.266;10.410;2022-12-18T10:24:35;102951.72;;;-3.99;100.00
10510;BME280;5303;53.266;10.410;2022-12-18T10:27:16;102953.50;;;-3.97;100.00
10510;BME280;5303;53.266;10.410;2022-12-18T10:29:45;102951.44;;;-3.82;100.00
10510;BME280;5303;53.266;10.410;2022-12-18T10:32:17;102949.59;;;-3.78;100.00
10510;BME280;5303;53.266;10.410;2022-12-18T10:34:50;102949.38;;;-3.67;100.00
10510;BME280;5303;53.266;10.410;2022-12-18T10:37:19;102954.47;;;-3.57;100.00
10510;BME280;5303;53.266;10.410;2022-12-18T10:40:07;102963.22;;;-3.50;100.00
10510;BME280;5303;53.266;10.410;2022-12-18T10:42:33;102966.56;;;-3.39;100.00
10510;BME280;5303;53.266;10.410;2022-12-18T10:45:15;102967.44;;;-3.38;100.00
10510;BME280;5303;53.266;10.410;2022-12-18T10:47:50;102969.94;;;-3.29;100.00
10510;BME280;5303;53.266;10.410;2022-12-18T10:50:35;102970.16;;;-3.40;100.00
10510;BME280;5303;53.266;10.410;2022-12-18T10:53:04;102964.50;;;-3.24;100.00
10510;BME280;5303;53.266;10.410;2022-12-18T10:55:38;102945.78;;;-3.21;100.00
10510;BME280;5303;53.266;10.410;2022-12-18T11:03:39;102949.66;;;-2.96;100.00
10510;BME280;5303;53.266;10.410;2022-12-18T11:08:32;102945.06;;;-2.89;100.00
10510;BME280;5303;53.266;10.410;2022-12-18T11:10:57;102940.66;;;-2.90;100.00
10510;BME280;5303;53.266;10.410;2022-12-18T11:13:25;102942.31;;;-2.85;100.00
10510;BME280;5303;53.266;10.410;2022-12-18T11:15:51;102930.78;;;-2.85;100.00
10510;BME280;5303;53.266;10.410;2022-12-18T11:21:07;102946.72;;;-2.82;100.00
10510;BME280;5303;53.266;10.410;2022-12-18T11:23:34;102949.25;;;-2.77;100.00
10510;BME280;5303;53.266;10.410;2022-12-18T11:26:03;102945.00;;;-2.86;100.00
10510;BME280;5303;53.266;10.410;2022-12-18T11:28:42;102944.78;;;-2.75;100.00
10510;BME280;5303;53.266;10.410;2022-12-18T11:31:17;102937.47;;;-2.67;100.00
10510;BME280;5303;53.266;10.410;2022-12-18T11:33:49;102929.25;;;-2.58;100.00
10510;BME280;5303;53.266;10.410;2022-12-18T11:36:18;102930.25;;;-2.62;100.00
10510;BME280;5303;53.266;10.410;2022-12-18T11:38:46;102921.94;;;-2.50;100.00
10510;BME280;5303;53.266;10.410;2022-12-18T11:41:29;102917.41;;;-2.46;100.00
10510;BME280;5303;53.266;10.410;2022-12-18T11:44:34;102896.56;;;-2.32;100.00
10510;BME280;5303;53.266;10.410;2022-12-18T11:47:07;102900.03;;;-2.28;100.00
10510;BME280;5303;53.266;10.410;2022-12-18T11:49:35;102904.47;;;-2.27;100.00
10510;BME280;5303;53.266;10.410;2022-12-18T11:54:51;102907.16;;;-2.29;100.00
10510;BME280;5303;53.266;10.410;2022-12-18T11:57:30;102906.44;;;-2.34;100.00
10510;BME280;5303;53.266;10.410;2022-12-18T12:00:13;102909.81;;;-2.27;100.00
10510;BME280;5303;53.266;10.410;2022-12-18T12:05:45;102903.41;;;-2.22;100.00
10510;BME280;5303;53.266;10.410;2022-12-18T12:10:56;102895.31;;;-2.17;100.00
10510;BME280;5303;53.266;10.410;2022-12-18T12:21:21;102872.06;;;-2.14;100.00
10510;BME280;5303;53.266;10.410;2022-12-18T12:23:58;102866.66;;;-2.11;100.00
10510;BME280;5303;53.266;10.410;2022-12-18T12:26:36;102859.41;;;-2.05;100.00
10510;BME280;5303;53.266;10.410;2022-12-18T12:29:23;102854.06;;;-2.05;100.00
10510;BME280;5303;53.266;10.410;2022-12-18T12:37:38;102849.16;;;-1.90;100.00
10510;BME280;5303;53.266;10.410;2022-12-18T12:40:12;102842.03;;;-1.89;100.00
10510;BME280;5303;53.266;10.410;2022-12-18T12:42:46;102841.91;;;-1.84;100.00
10510;BME280;5303;53.266;10.410;2022-12-18T12:45:47;102835.94;;;-1.94;100.00
10510;BME280;5303;53.266;10.410;2022-12-18T12:48:19;102813.63;;;-1.92;100.00
10510;BME280;5303;53.266;10.410;2022-12-18T12:50:47;102811.59;;;-1.83;100.00
10510;BME280;5303;53.266;10.410;2022-12-18T12:53:23;102817.00;;;-1.87;100.00
10510;BME280;5303;53.266;10.410;2022-12-18T12:55:50;102811.72;;;-1.88;100.00
10510;BME280;5303;53.266;10.410;2022-12-18T12:58:28;102810.31;;;-1.70;100.00
10510;BME280;5303;53.266;10.410;2022-12-18T13:03:48;102773.66;;;-1.65;100.00
10510;BME280;5303;53.266;10.410;2022-12-18T13:06:33;102772.53;;;-1.58;100.00
10510;BME280;5303;53.266;10.410;2022-12-18T13:09:02;102763.88;;;-1.66;100.00
10510;BME280;5303;53.266;10.410;2022-12-18T13:14:23;102768.22;;;-1.62;100.00
10510;BME280;5303;53.266;10.410;2022-12-18T13:16:49;102757.00;;;-1.73;100.00
10510;BME280;5303;53.266;10.410;2022-12-18T13:19:22;102771.44;;;-1.80;100.00
10510;BME280;5303;53.266;10.410;2022-12-18T13:21:54;102773.97;;;-1.76;100.00
10510;BME280;5303;53.266;10.410;2022-12-18T13:24:26;102781.91;;;-1.73;100.00
10510;BME280;5303;53.266;10.410;2022-12-18T13:26:52;102778.56;;;-1.81;100.00
10510;BME280;5303;53.266;10.410;2022-12-18T13:29:44;102779.25;;;-1.74;100.00
10510;BME280;5303;53.266;10.410;2022-12-18T13:32:21;102784.50;;;-1.71;100.00
10510;BME280;5303;53.266;10.410;2022-12-18T13:34:47;102774.16;;;-1.82;100.00
10510;BME280;5303;53.266;10.410;2022-12-18T13:39:56;102779.59;;;-1.85;100.00
10510;BME280;5303;53.266;10.410;2022-12-18T13:42:38;102792.16;;;-1.89;100.00
10510;BME280;5303;53.266;10.410;2022-12-18T13:45:37;102787.88;;;-1.94;100.00
10510;BME280;5303;53.266;10.410;2022-12-18T13:48:15;102788.72;;;-1.92;100.00
10510;BME280;5303;53.266;10.410;2022-12-18T13:50:41;102770.91;;;-1.93;100.00
10510;BME280;5303;53.266;10.410;2022-12-18T13:53:20;102770.72;;;-1.85;100.00
10510;BME280;5303;53.266;10.410;2022-12-18T13:55:46;102764.75;;;-1.95;100.00
10510;BME280;5303;53.266;10.410;2022-12-18T13:58:12;102771.06;;;-1.98;100.00